Terminal Aerodrome Forecast
Issued by NWS

Home | Current Version | Previous Version | Text Only | Print | Product List | Glossary On
Versions: 1 2 3 4 5 6 7 8 9 10 11 12 13 14
000
FTUS44 KEPZ 150500
TAFTCS
TAF
KTCS 150530Z 1506/1606 23008KT P6SM BKN060 BKN110
     FM150900 29007KT P6SM BKN050 BKN200
     FM151500 13008KT P6SM BKN050 BKN200
     FM160000 07008KT P6SM VCTS BKN040CB OVC120=

USA.gov is the U.S. government's official web portal to all federal, state and local government web resources and services.